createdAt,value
2023-02-27T00:01:35.294Z,3.53
2023-02-27T00:04:05.818Z,4.18
2023-02-27T00:06:36.111Z,3.97
2023-02-27T00:09:09.996Z,4.75
2023-02-27T00:11:41.200Z,7.43
2023-02-27T00:14:14.485Z,5.90
2023-02-27T00:16:45.838Z,6.00
2023-02-27T00:19:16.187Z,6.88
2023-02-27T00:21:47.720Z,5.38
2023-02-27T00:24:18.099Z,5.03
2023-02-27T00:26:50.071Z,4.57
2023-02-27T00:29:21.238Z,5.13
2023-02-27T00:31:55.363Z,6.45
2023-02-27T00:34:28.051Z,6.28
2023-02-27T00:36:58.232Z,5.13
2023-02-27T00:39:28.582Z,4.22
2023-02-27T00:41:59.654Z,3.88
2023-02-27T00:44:30.688Z,3.80
2023-02-27T00:47:01.123Z,5.10
2023-02-27T00:49:31.133Z,4.50
2023-02-27T00:52:03.960Z,7.57
2023-02-27T00:54:35.595Z,8.48
2023-02-27T00:57:07.025Z,6.78
2023-02-27T00:59:37.222Z,7.47
2023-02-27T01:02:07.502Z,6.13
2023-02-27T01:04:39.262Z,4.40
2023-02-27T01:07:11.730Z,6.20
2023-02-27T01:09:41.915Z,5.88
2023-02-27T01:12:12.334Z,4.55
2023-02-27T01:14:42.835Z,4.97
2023-02-27T01:17:13.389Z,3.88
2023-02-27T01:19:43.623Z,6.13
2023-02-27T01:22:13.958Z,5.22
2023-02-27T01:24:44.554Z,7.32
2023-02-27T01:27:17.584Z,7.28
2023-02-27T01:29:47.749Z,7.60
2023-02-27T01:32:18.123Z,6.18
2023-02-27T01:34:51.635Z,4.97
2023-02-27T01:37:23.264Z,5.85
2023-02-27T01:39:53.578Z,4.15
2023-02-27T01:42:26.910Z,4.65
2023-02-27T01:45:15.752Z,5.13
2023-02-27T01:47:51.711Z,6.53
2023-02-27T01:50:25.014Z,6.93
2023-02-27T01:53:01.659Z,5.05
2023-02-27T01:55:35.341Z,6.85
2023-02-27T01:58:09.366Z,4.35
2023-02-27T02:00:39.913Z,5.65
2023-02-27T02:06:17.535Z,6.32
2023-02-27T02:08:59.576Z,5.88
2023-02-27T02:11:30.392Z,6.20
2023-02-27T02:14:04.130Z,5.72
2023-02-27T02:16:57.378Z,5.97
2023-02-27T02:19:30.866Z,6.43
2023-02-27T02:22:38.494Z,5.45
2023-02-27T02:25:29.450Z,7.72
2023-02-27T02:28:31.178Z,6.57
2023-02-27T02:31:19.340Z,7.65
2023-02-27T02:34:15.715Z,6.82
2023-02-27T02:37:13.221Z,6.28
2023-02-27T02:40:02.183Z,7.15
2023-02-27T02:42:33.706Z,5.35
2023-02-27T02:45:18.585Z,7.45
2023-02-27T02:48:07.036Z,5.70
2023-02-27T02:50:40.347Z,6.32
2023-02-27T02:53:19.522Z,6.80
2023-02-27T02:56:02.697Z,7.72
2023-02-27T02:58:39.253Z,7.30
2023-02-27T03:01:13.332Z,10.10
2023-02-27T03:03:53.662Z,7.53
2023-02-27T03:06:35.213Z,6.18
2023-02-27T03:11:45.967Z,6.50
2023-02-27T03:14:25.346Z,7.15
2023-02-27T03:16:59.607Z,7.63
2023-02-27T03:19:58.413Z,5.28
2023-02-27T03:22:34.161Z,6.30
2023-02-27T03:25:09.261Z,6.30
2023-02-27T03:27:50.251Z,11.10
2023-02-27T03:30:39.830Z,10.45
2023-02-27T03:33:32.717Z,6.22
2023-02-27T03:37:10.477Z,6.13
2023-02-27T03:40:23.318Z,7.15
2023-02-27T03:50:53.836Z,4.97
2023-02-27T03:53:34.592Z,6.70
2023-02-27T03:56:08.929Z,8.48
2023-02-27T03:58:39.049Z,7.20
2023-02-27T04:01:09.630Z,4.57
2023-02-27T04:03:45.662Z,5.68
2023-02-27T04:06:38.218Z,10.18
2023-02-27T04:09:53.342Z,7.80
2023-02-27T04:12:50.719Z,4.53
2023-02-27T04:15:32.596Z,5.60
2023-02-27T04:18:20.564Z,5.63
2023-02-27T04:20:57.934Z,7.15
2023-02-27T04:23:37.029Z,6.45
2023-02-27T04:26:34.665Z,4.60
2023-02-27T04:29:07.822Z,5.35
2023-02-27T04:31:56.780Z,5.45
2023-02-27T04:34:39.410Z,5.95
2023-02-27T04:37:37.762Z,9.40
2023-02-27T04:40:13.967Z,4.55
2023-02-27T04:42:52.334Z,4.65
2023-02-27T04:45:26.637Z,5.28
2023-02-27T04:48:30.132Z,4.10
2023-02-27T04:51:07.117Z,6.88
2023-02-27T04:53:43.987Z,5.72
2023-02-27T04:56:29.543Z,4.50
2023-02-27T04:59:05.147Z,7.60
2023-02-27T05:01:43.419Z,7.32
2023-02-27T05:04:17.677Z,5.70
2023-02-27T05:06:49.969Z,5.85
2023-02-27T05:09:23.987Z,5.25
2023-02-27T05:12:03.115Z,6.18
2023-02-27T05:14:45.843Z,6.55
2023-02-27T05:17:34.921Z,5.95
2023-02-27T05:20:08.600Z,4.47
2023-02-27T05:23:11.955Z,6.63
2023-02-27T05:26:02.998Z,4.82
2023-02-27T05:29:03.027Z,4.85
2023-02-27T05:32:11.106Z,11.52
2023-02-27T05:35:22.805Z,4.63
2023-02-27T05:38:27.724Z,5.68
2023-02-27T05:41:13.515Z,5.53
2023-02-27T05:43:52.480Z,3.95
2023-02-27T05:46:35.910Z,6.18
2023-02-27T05:49:21.382Z,4.32
2023-02-27T05:51:53.954Z,9.10
2023-02-27T05:54:36.805Z,4.95
2023-02-27T05:57:12.181Z,5.30
2023-02-27T05:59:51.978Z,7.18
2023-02-27T06:02:22.341Z,8.15
2023-02-27T06:04:52.527Z,3.75
2023-02-27T06:07:25.777Z,4.03
2023-02-27T06:09:56.265Z,6.47
2023-02-27T06:12:27.289Z,8.60
2023-02-27T06:14:58.281Z,5.40
2023-02-27T06:17:29.227Z,7.20
2023-02-27T06:19:59.239Z,6.70
2023-02-27T06:22:30.089Z,6.30
2023-02-27T06:25:01.752Z,4.15
2023-02-27T06:27:33.249Z,5.25
2023-02-27T06:30:04.701Z,5.25
2023-02-27T06:32:35.826Z,3.70
2023-02-27T06:35:07.541Z,4.38
2023-02-27T06:37:38.013Z,4.78
2023-02-27T06:40:16.746Z,3.78
2023-02-27T06:42:47.572Z,8.45
2023-02-27T06:45:19.794Z,5.13
2023-02-27T06:47:51.064Z,4.60
2023-02-27T06:50:21.516Z,5.10
2023-02-27T06:52:51.623Z,4.72
2023-02-27T06:55:24.141Z,3.92
2023-02-27T06:57:53.973Z,4.88
2023-02-27T07:00:24.384Z,4.70
2023-02-27T07:02:55.500Z,3.13
2023-02-27T07:05:26.289Z,4.72
2023-02-27T07:07:58.626Z,4.03
2023-02-27T07:10:29.947Z,4.93
2023-02-27T07:13:00.239Z,4.97
2023-02-27T07:15:31.466Z,6.28
2023-02-27T07:18:01.921Z,4.45
2023-02-27T07:20:32.086Z,5.53
2023-02-27T07:23:02.265Z,4.28
2023-02-27T07:25:32.716Z,8.23
2023-02-27T07:28:02.588Z,3.42
2023-02-27T07:30:33.850Z,4.22
2023-02-27T07:33:04.163Z,4.93
2023-02-27T07:35:34.977Z,6.28
2023-02-27T07:38:05.638Z,3.80
2023-02-27T07:40:35.381Z,3.47
2023-02-27T07:43:05.689Z,5.13
2023-02-27T07:45:36.680Z,3.30
2023-02-27T07:48:06.885Z,4.13
2023-02-27T07:50:37.648Z,4.65
2023-02-27T07:53:10.278Z,5.50
2023-02-27T07:55:40.687Z,5.15
2023-02-27T07:58:10.766Z,8.40
2023-02-27T08:00:42.733Z,6.10
2023-02-27T08:03:13.989Z,7.13
2023-02-27T08:05:44.570Z,3.85
2023-02-27T08:08:14.631Z,3.15
2023-02-27T08:10:44.767Z,6.28
2023-02-27T08:13:17.932Z,4.28
2023-02-27T08:15:51.081Z,4.75
2023-02-27T08:18:22.481Z,4.65
2023-02-27T08:20:53.586Z,4.00
2023-02-27T08:23:24.358Z,4.32
2023-02-27T08:25:54.591Z,3.95
2023-02-27T08:28:24.749Z,5.93
2023-02-27T08:30:57.077Z,6.43
2023-02-27T08:33:28.429Z,3.28
2023-02-27T08:35:58.833Z,3.33
2023-02-27T08:38:29.162Z,4.30
2023-02-27T08:40:58.849Z,3.55
2023-02-27T08:43:29.328Z,4.80
2023-02-27T08:46:00.432Z,4.47
2023-02-27T08:48:30.631Z,6.22
2023-02-27T08:51:00.683Z,4.18
2023-02-27T08:53:31.275Z,6.35
2023-02-27T08:56:02.480Z,3.05
2023-02-27T08:58:32.922Z,5.60
2023-02-27T09:01:03.764Z,4.22
2023-02-27T09:03:39.725Z,4.68
2023-02-27T09:06:10.292Z,4.78
2023-02-27T09:08:40.801Z,6.43
2023-02-27T09:11:11.027Z,5.18
2023-02-27T09:13:41.046Z,6.32
2023-02-27T09:16:13.131Z,3.70
2023-02-27T09:18:43.427Z,4.82
2023-02-27T09:21:14.456Z,4.03
2023-02-27T09:23:44.555Z,4.18
2023-02-27T09:26:14.919Z,5.90
2023-02-27T09:28:45.483Z,5.95
2023-02-27T09:31:15.922Z,4.82
2023-02-27T09:33:47.311Z,5.32
2023-02-27T09:36:18.533Z,4.30
2023-02-27T09:38:50.165Z,4.50
2023-02-27T09:41:43.570Z,4.78
2023-02-27T09:44:51.091Z,4.28
2023-02-27T09:47:21.345Z,4.50
2023-02-27T09:50:23.394Z,4.05
2023-02-27T09:52:54.781Z,4.88
2023-02-27T09:55:27.464Z,3.10
2023-02-27T09:58:30.473Z,3.97
2023-02-27T10:01:47.849Z,4.85
2023-02-27T10:04:49.094Z,4.00
2023-02-27T10:07:46.654Z,3.95
2023-02-27T10:10:38.129Z,4.88
2023-02-27T10:13:13.930Z,3.63
2023-02-27T10:15:52.335Z,3.42
2023-02-27T10:18:28.416Z,6.13
2023-02-27T10:21:03.171Z,3.60
2023-02-27T10:23:35.864Z,5.18
2023-02-27T10:26:06.795Z,6.80
2023-02-27T10:28:37.154Z,6.18
2023-02-27T10:31:21.923Z,6.55
2023-02-27T10:33:54.006Z,3.20
2023-02-27T10:36:33.573Z,4.43
2023-02-27T10:39:11.214Z,4.25
2023-02-27T10:41:43.907Z,5.25
2023-02-27T10:44:19.345Z,4.97
2023-02-27T10:46:51.979Z,6.10
2023-02-27T10:49:23.839Z,3.08
2023-02-27T10:52:15.606Z,5.22
2023-02-27T10:54:46.967Z,7.53
2023-02-27T10:57:30.302Z,5.75
2023-02-27T11:00:06.686Z,6.63
2023-02-27T11:02:45.849Z,5.45
2023-02-27T11:05:41.388Z,7.43
2023-02-27T11:08:23.448Z,4.63
2023-02-27T11:11:07.224Z,4.75
2023-02-27T11:13:43.443Z,5.10
2023-02-27T11:16:15.966Z,4.50
2023-02-27T11:18:48.501Z,7.03
2023-02-27T11:21:22.345Z,3.67
2023-02-27T11:24:04.995Z,7.43
2023-02-27T11:26:41.370Z,4.85
2023-02-27T11:29:19.720Z,6.00
2023-02-27T11:32:13.824Z,6.10
2023-02-27T11:34:51.598Z,5.18
2023-02-27T11:37:39.317Z,6.25
2023-02-27T11:42:49.640Z,4.60
2023-02-27T11:46:09.927Z,3.15
2023-02-27T11:48:22.179Z,5.10
2023-02-27T11:51:13.369Z,3.30
2023-02-27T11:53:55.595Z,6.05
2023-02-27T11:56:41.409Z,7.70
2023-02-27T11:59:33.191Z,4.30
2023-02-27T12:02:19.632Z,4.60
2023-02-27T12:04:59.103Z,5.60
2023-02-27T12:07:48.663Z,6.22
2023-02-27T12:10:26.668Z,3.28
2023-02-27T12:13:08.418Z,5.97
2023-02-27T12:16:04.473Z,6.60
2023-02-27T12:18:48.974Z,5.50
2023-02-27T12:21:30.008Z,3.47
2023-02-27T12:24:04.375Z,4.47
2023-02-27T12:26:49.581Z,7.05
2023-02-27T12:29:29.013Z,3.10
2023-02-27T12:32:09.873Z,6.45
2023-02-27T12:34:49.190Z,2.97
2023-02-27T12:37:31.324Z,5.47
2023-02-27T12:40:03.446Z,5.28
2023-02-27T12:42:40.498Z,13.05
2023-02-27T12:45:31.865Z,7.45
2023-02-27T12:48:25.875Z,6.93
2023-02-27T12:51:13.614Z,18.80
2023-02-27T12:53:55.605Z,23.48
2023-02-27T12:56:36.028Z,10.82
2023-02-27T12:59:41.760Z,32.05
2023-02-27T13:02:25.543Z,32.13
2023-02-27T13:05:25.534Z,25.63
2023-02-27T13:10:52.389Z,23.60
2023-02-27T13:13:55.814Z,21.55
2023-02-27T13:16:58.830Z,23.33
2023-02-27T13:19:39.053Z,22.67
2023-02-27T13:22:40.226Z,25.67
2023-02-27T13:25:17.700Z,23.30
2023-02-27T13:27:58.060Z,20.45
2023-02-27T13:30:40.149Z,19.33
2023-02-27T13:33:38.619Z,26.65
2023-02-27T13:36:29.275Z,28.15
2023-02-27T13:39:01.833Z,28.67
2023-02-27T13:41:37.087Z,14.50
2023-02-27T13:44:22.360Z,23.08
2023-02-27T13:46:52.853Z,16.52
2023-02-27T13:49:30.021Z,15.60
2023-02-27T13:52:07.255Z,15.48
2023-02-27T13:54:43.917Z,17.40
2023-02-27T13:57:25.457Z,17.27
2023-02-27T14:02:59.842Z,24.40
2023-02-27T14:05:34.708Z,23.73
2023-02-27T14:08:16.163Z,17.38
2023-02-27T14:10:57.366Z,18.25
2023-02-27T14:13:51.996Z,26.40
2023-02-27T14:16:41.340Z,23.25
2023-02-27T14:19:17.603Z,16.55
2023-02-27T14:22:05.089Z,18.25
2023-02-27T14:24:49.743Z,16.63
2023-02-27T14:27:36.588Z,26.27
2023-02-27T14:30:13.014Z,20.67
2023-02-27T14:32:44.336Z,30.52
2023-02-27T14:35:17.966Z,20.30
2023-02-27T14:37:48.611Z,25.77
2023-02-27T14:40:30.427Z,16.60
2023-02-27T14:43:26.613Z,14.40
2023-02-27T14:45:57.275Z,23.88
2023-02-27T14:48:30.559Z,16.05
2023-02-27T14:51:04.267Z,14.15
2023-02-27T14:53:37.412Z,14.45
2023-02-27T14:56:07.602Z,25.83
2023-02-27T14:58:37.686Z,18.77
2023-02-27T15:01:11.735Z,15.00
2023-02-27T15:03:46.644Z,19.60
2023-02-27T15:06:25.171Z,15.30
2023-02-27T15:08:58.587Z,22.73
2023-02-27T15:11:29.550Z,20.67
2023-02-27T15:14:06.727Z,18.02
2023-02-27T15:16:41.792Z,26.50
2023-02-27T15:21:53.187Z,20.50
2023-02-27T15:24:35.295Z,14.02
2023-02-27T15:27:19.178Z,14.48
2023-02-27T15:30:00.536Z,17.48
2023-02-27T15:32:41.419Z,13.95
2023-02-27T15:35:26.331Z,15.65
2023-02-27T15:37:59.857Z,19.58
2023-02-27T15:40:33.508Z,19.02
2023-02-27T15:43:04.754Z,18.00
2023-02-27T15:45:38.043Z,11.38
2023-02-27T15:48:22.274Z,23.42
2023-02-27T15:51:00.509Z,12.00
2023-02-27T15:53:35.619Z,23.02
2023-02-27T15:56:11.663Z,19.80
2023-02-27T15:58:55.438Z,15.07
2023-02-27T16:01:28.786Z,17.63
2023-02-27T16:04:02.496Z,19.38
2023-02-27T16:06:41.279Z,16.05
2023-02-27T16:09:33.047Z,11.57
2023-02-27T16:12:26.158Z,17.00
2023-02-27T16:15:18.006Z,18.55
2023-02-27T16:17:56.906Z,24.42
2023-02-27T16:20:38.940Z,24.67
2023-02-27T16:23:33.191Z,17.40
2023-02-27T16:26:24.502Z,15.48
2023-02-27T16:29:02.437Z,18.00
2023-02-27T16:31:41.796Z,12.88
2023-02-27T16:34:16.023Z,18.92
2023-02-27T16:37:07.111Z,9.75
2023-02-27T16:39:37.269Z,8.05
2023-02-27T16:42:08.050Z,12.60
2023-02-27T16:44:39.249Z,15.88
2023-02-27T16:47:10.215Z,8.38
2023-02-27T16:49:41.820Z,18.88
2023-02-27T16:52:15.065Z,9.20
2023-02-27T16:54:45.934Z,11.63
2023-02-27T16:57:16.355Z,15.95
2023-02-27T16:59:46.498Z,15.18
2023-02-27T17:02:19.090Z,14.68
2023-02-27T17:04:51.232Z,14.15
2023-02-27T17:07:22.489Z,17.88
2023-02-27T17:09:53.281Z,32.95
2023-02-27T17:12:23.616Z,20.73
2023-02-27T17:14:54.677Z,15.63
2023-02-27T17:17:24.859Z,17.50
2023-02-27T17:19:56.299Z,15.90
2023-02-27T17:22:27.438Z,12.52
2023-02-27T17:24:58.058Z,12.38
2023-02-27T17:27:28.364Z,25.40
2023-02-27T17:29:58.661Z,18.38
2023-02-27T17:32:28.784Z,15.18
2023-02-27T17:35:00.584Z,16.15
2023-02-27T17:37:31.485Z,4.85
2023-02-27T17:40:05.276Z,9.10
2023-02-27T17:42:37.715Z,10.70
2023-02-27T17:45:09.495Z,9.05
2023-02-27T17:47:40.311Z,13.98
2023-02-27T17:50:11.300Z,19.45
2023-02-27T17:52:42.151Z,16.02
2023-02-27T17:55:12.591Z,13.25
2023-02-27T17:57:42.708Z,10.93
2023-02-27T18:00:16.588Z,18.00
2023-02-27T18:02:47.050Z,9.88
2023-02-27T18:05:18.184Z,23.98
2023-02-27T18:07:48.403Z,20.08
2023-02-27T18:10:18.524Z,9.43
2023-02-27T18:12:50.102Z,20.42
2023-02-27T18:15:20.479Z,30.98
2023-02-27T18:17:51.252Z,20.63
2023-02-27T18:20:22.570Z,15.68
2023-02-27T18:22:52.976Z,19.42
2023-02-27T18:25:24.857Z,11.40
2023-02-27T18:27:57.285Z,22.63
2023-02-27T18:30:30.564Z,23.73
2023-02-27T18:33:01.869Z,21.05
2023-02-27T18:35:32.506Z,18.38
2023-02-27T18:38:04.610Z,29.38
2023-02-27T18:40:36.305Z,19.55
2023-02-27T18:43:06.671Z,25.23
2023-02-27T18:45:39.843Z,21.98
2023-02-27T18:48:10.450Z,14.70
2023-02-27T18:50:40.548Z,31.02
2023-02-27T18:53:12.174Z,25.02
2023-02-27T18:55:43.139Z,22.98
2023-02-27T18:58:13.624Z,23.70
2023-02-27T19:00:45.362Z,26.67
2023-02-27T19:03:15.940Z,19.58
2023-02-27T19:05:46.417Z,16.92
2023-02-27T19:08:17.165Z,18.73
2023-02-27T19:10:48.983Z,21.13
2023-02-27T19:13:20.146Z,25.50
2023-02-27T19:15:51.502Z,21.58
2023-02-27T19:18:22.582Z,29.35
2023-02-27T19:20:54.879Z,21.27
2023-02-27T19:23:28.238Z,25.17
2023-02-27T19:26:05.360Z,28.50
2023-02-27T19:28:36.811Z,25.25
2023-02-27T19:31:19.043Z,21.52
2023-02-27T19:33:51.977Z,21.80
2023-02-27T19:36:26.408Z,19.92
2023-02-27T19:38:58.542Z,22.23
2023-02-27T19:41:33.115Z,28.75
2023-02-27T19:44:04.916Z,27.23
2023-02-27T19:46:36.603Z,19.08
2023-02-27T19:49:07.586Z,24.02
2023-02-27T19:51:38.545Z,29.50
2023-02-27T19:54:09.387Z,29.40
2023-02-27T19:56:40.624Z,26.30
2023-02-27T19:59:15.857Z,22.27
2023-02-27T20:01:46.886Z,23.30
2023-02-27T20:04:20.596Z,21.13
2023-02-27T20:06:55.019Z,28.50
2023-02-27T20:09:25.971Z,33.55
2023-02-27T20:12:03.822Z,20.45
2023-02-27T20:14:35.051Z,22.73
2023-02-27T20:17:05.550Z,30.67
2023-02-27T20:19:38.551Z,25.13
2023-02-27T20:22:11.010Z,15.57
2023-02-27T20:24:42.183Z,24.13
2023-02-27T20:27:13.772Z,24.00
2023-02-27T20:29:43.787Z,18.10
2023-02-27T20:32:14.898Z,25.88
2023-02-27T20:34:47.411Z,27.55
2023-02-27T20:37:18.800Z,34.58
2023-02-27T20:39:54.870Z,21.63
2023-02-27T20:42:26.398Z,26.88
2023-02-27T20:44:58.158Z,36.45
2023-02-27T20:47:29.540Z,26.95
2023-02-27T20:50:00.785Z,37.40
2023-02-27T20:52:31.145Z,23.20
2023-02-27T20:55:01.911Z,16.30
2023-02-27T20:57:32.810Z,46.35
2023-02-27T21:00:04.236Z,35.05
2023-02-27T21:02:35.850Z,33.67
2023-02-27T21:05:06.978Z,43.35
2023-02-27T21:07:38.421Z,40.10
2023-02-27T21:10:09.628Z,22.27
2023-02-27T21:12:42.407Z,30.08
2023-02-27T21:15:13.008Z,40.70
2023-02-27T21:17:44.561Z,27.85
2023-02-27T21:20:16.268Z,28.00
2023-02-27T21:22:47.372Z,38.58
2023-02-27T21:25:18.378Z,42.08
2023-02-27T21:27:49.452Z,49.85
2023-02-27T21:30:21.382Z,50.78
2023-02-27T21:32:52.629Z,39.15
2023-02-27T21:35:30.818Z,54.60
2023-02-27T21:38:02.991Z,42.13
2023-02-27T21:40:34.088Z,20.70
2023-02-27T21:43:04.109Z,32.25
2023-02-27T21:45:36.231Z,42.08
2023-02-27T21:48:09.106Z,41.90
2023-02-27T21:50:40.243Z,36.65
2023-02-27T21:53:11.714Z,45.22
2023-02-27T21:55:42.735Z,34.47
2023-02-27T21:58:13.913Z,44.38
2023-02-27T22:00:45.405Z,42.65
2023-02-27T22:03:16.949Z,45.00
2023-02-27T22:05:48.044Z,27.52
2023-02-27T22:08:18.561Z,38.80
2023-02-27T22:10:48.583Z,24.63
2023-02-27T22:13:20.057Z,31.30
2023-02-27T22:15:50.268Z,40.50
2023-02-27T22:18:22.438Z,36.00
2023-02-27T22:20:52.952Z,34.58
2023-02-27T22:23:25.934Z,33.05
2023-02-27T22:26:13.680Z,31.00
2023-02-27T22:28:45.872Z,42.22
2023-02-27T22:31:32.285Z,41.38
2023-02-27T22:34:14.124Z,37.75
2023-02-27T22:36:49.172Z,42.83
2023-02-27T22:39:20.918Z,54.65
2023-02-27T22:41:52.021Z,32.35
2023-02-27T22:44:22.536Z,44.17
2023-02-27T22:46:52.859Z,36.83
2023-02-27T22:49:24.736Z,51.97
2023-02-27T22:51:55.265Z,42.75
2023-02-27T22:54:28.270Z,38.70
2023-02-27T22:57:00.266Z,33.83
2023-02-27T22:59:31.755Z,32.58
2023-02-27T23:02:01.919Z,31.98
2023-02-27T23:04:33.457Z,29.63
2023-02-27T23:07:04.806Z,36.28
2023-02-27T23:12:37.205Z,33.55
2023-02-27T23:15:09.520Z,44.85
2023-02-27T23:17:52.027Z,45.53
2023-02-27T23:20:27.480Z,39.83
2023-02-27T23:23:01.991Z,32.13
2023-02-27T23:25:34.357Z,41.28
2023-02-27T23:28:07.605Z,53.50
2023-02-27T23:30:39.752Z,41.88
2023-02-27T23:33:11.433Z,28.40
2023-02-27T23:35:42.779Z,19.02
2023-02-27T23:38:13.994Z,17.92
2023-02-27T23:40:45.993Z,16.02
2023-02-27T23:43:36.386Z,12.40
2023-02-27T23:46:13.209Z,10.40
2023-02-27T23:48:45.465Z,11.43
2023-02-27T23:51:16.489Z,10.75
2023-02-27T23:53:47.771Z,11.88
2023-02-27T23:56:28.299Z,15.63
2023-02-27T23:59:05.646Z,8.68
